RYR6RR EGSS-LEAM
Flight info
| Callsign | RYR6RR |
|---|---|
| Flight time | 2h 30m |
| Altitude | 32000 |
| Route | NUGBO M183 SILVA Q41 SAM M195 MARUK N621 LELNA DCT NOVAN DCT NENEM P152 PPN N10 CJN L27 BLN N865 ESILA |
| Aircraft | B38M/M-SDE1FGHILORVWXY/HB1 |
Departure
| Time | 2026-04-20 19:36 |
|---|---|
| Airport | London Stansted Airport (EGSS) |
Arrival
| Time | 2026-04-20 22:06 |
|---|---|
| Airport | Almería Airport (LEAM) |
| Time | Latitude | Longitude | Altitude | Speed | Heading |
|---|---|---|---|---|---|
| 2026-04-20 19:02 | 51.89375 | 0.25998 | 355 ft | 0 kts | 222° |
| 2026-04-20 19:26 | 51.89377 | 0.26001 | 355 ft | 3 kts | 222° |
| 2026-04-20 19:26 | 51.89396 | 0.26030 | 360 ft | 3 kts | 222° |
| 2026-04-20 19:27 | 51.89409 | 0.26058 | 359 ft | 4 kts | 274° |
| 2026-04-20 19:27 | 51.89402 | 0.26082 | 360 ft | 3 kts | 313° |
| 2026-04-20 19:27 | 51.89390 | 0.26103 | 364 ft | 0 kts | 313° |
| 2026-04-20 19:29 | 51.89391 | 0.26100 | 364 ft | 1 kts | 313° |
| 2026-04-20 19:30 | 51.89408 | 0.26072 | 360 ft | 6 kts | 313° |
| 2026-04-20 19:30 | 51.89442 | 0.26012 | 361 ft | 8 kts | 313° |
| 2026-04-20 19:30 | 51.89487 | 0.25934 | 359 ft | 11 kts | 313° |
| 2026-04-20 19:30 | 51.89529 | 0.25831 | 357 ft | 12 kts | 265° |
| 2026-04-20 19:31 | 51.89475 | 0.25728 | 359 ft | 13 kts | 223° |
| 2026-04-20 19:31 | 51.89403 | 0.25619 | 355 ft | 15 kts | 223° |
| 2026-04-20 19:31 | 51.89317 | 0.25489 | 357 ft | 19 kts | 223° |
| 2026-04-20 19:31 | 51.89211 | 0.25330 | 355 ft | 22 kts | 223° |
| 2026-04-20 19:32 | 51.89094 | 0.25154 | 358 ft | 24 kts | 223° |
| 2026-04-20 19:32 | 51.88968 | 0.24965 | 357 ft | 26 kts | 223° |
| 2026-04-20 19:32 | 51.88833 | 0.24763 | 359 ft | 28 kts | 222° |
| 2026-04-20 19:32 | 51.88675 | 0.24526 | 350 ft | 34 kts | 223° |
| 2026-04-20 19:33 | 51.88495 | 0.24255 | 353 ft | 36 kts | 221° |
| 2026-04-20 19:33 | 51.88317 | 0.23989 | 352 ft | 35 kts | 223° |
| 2026-04-20 19:33 | 51.88134 | 0.23715 | 348 ft | 37 kts | 223° |
| 2026-04-20 19:33 | 51.87963 | 0.23458 | 348 ft | 29 kts | 223° |
| 2026-04-20 19:34 | 51.87813 | 0.23234 | 343 ft | 29 kts | 223° |
| 2026-04-20 19:34 | 51.87730 | 0.23076 | 346 ft | 16 kts | 271° |
| 2026-04-20 19:34 | 51.87794 | 0.22925 | 348 ft | 15 kts | 314° |
| 2026-04-20 19:34 | 51.87878 | 0.22780 | 334 ft | 21 kts | 312° |
| 2026-04-20 19:35 | 51.87946 | 0.22666 | 336 ft | 7 kts | 329° |
| 2026-04-20 19:35 | 51.87959 | 0.22669 | 334 ft | 2 kts | 41° |
| 2026-04-20 19:35 | 51.88066 | 0.22831 | 332 ft | 58 kts | 43° |
| 2026-04-20 19:35 | 51.88558 | 0.23567 | 353 ft | 132 kts | 42° |
| 2026-04-20 19:36 | 51.89357 | 0.24769 | 591 ft | 173 kts | 44° |
| 2026-04-20 19:36 | 51.90237 | 0.26141 | 1545 ft | 178 kts | 45° |
| 2026-04-20 19:36 | 51.90842 | 0.27068 | 2185 ft | 184 kts | 44° |
| 2026-04-20 19:36 | 51.91827 | 0.28518 | 2907 ft | 196 kts | 42° |
| 2026-04-20 19:37 | 51.92985 | 0.29753 | 3643 ft | 209 kts | 18° |
| 2026-04-20 19:37 | 51.94503 | 0.29735 | 4136 ft | 234 kts | 344° |
| 2026-04-20 19:37 | 51.95953 | 0.28328 | 4763 ft | 257 kts | 317° |
| 2026-04-20 19:37 | 51.96831 | 0.25796 | 5731 ft | 263 kts | 286° |
| 2026-04-20 19:38 | 51.97147 | 0.22837 | 6652 ft | 268 kts | 283° |
| 2026-04-20 19:38 | 51.97476 | 0.19858 | 7555 ft | 270 kts | 283° |
| 2026-04-20 19:38 | 51.97812 | 0.16820 | 8387 ft | 276 kts | 282° |
| 2026-04-20 19:38 | 51.98152 | 0.13736 | 9245 ft | 280 kts | 282° |
| 2026-04-20 19:39 | 51.98496 | 0.10604 | 10101 ft | 284 kts | 282° |
| 2026-04-20 19:39 | 51.98835 | 0.07401 | 10755 ft | 295 kts | 279° |
| 2026-04-20 19:39 | 51.98680 | 0.03988 | 11204 ft | 314 kts | 259° |
| 2026-04-20 19:39 | 51.98222 | 0.00454 | 11719 ft | 326 kts | 261° |
| 2026-04-20 19:40 | 51.97766 | -0.03169 | 12556 ft | 327 kts | 261° |
| 2026-04-20 19:40 | 51.97302 | -0.06794 | 13390 ft | 330 kts | 261° |
| 2026-04-20 19:40 | 51.96830 | -0.10447 | 14179 ft | 333 kts | 261° |
| 2026-04-20 19:40 | 51.96350 | -0.14140 | 14911 ft | 335 kts | 260° |
| 2026-04-20 19:41 | 51.95866 | -0.17857 | 15641 ft | 338 kts | 260° |
| 2026-04-20 19:41 | 51.95377 | -0.21593 | 16374 ft | 341 kts | 260° |
| 2026-04-20 19:41 | 51.94883 | -0.25367 | 17072 ft | 344 kts | 260° |
| 2026-04-20 19:41 | 51.94383 | -0.29172 | 17778 ft | 347 kts | 260° |
| 2026-04-20 19:42 | 51.93878 | -0.33011 | 18456 ft | 350 kts | 260° |
| 2026-04-20 19:42 | 51.93368 | -0.36877 | 19060 ft | 352 kts | 260° |
| 2026-04-20 19:42 | 51.92856 | -0.40748 | 19724 ft | 351 kts | 261° |
| 2026-04-20 19:42 | 51.92343 | -0.44610 | 20379 ft | 351 kts | 261° |
| 2026-04-20 19:43 | 51.92003 | -0.47167 | 20799 ft | 351 kts | 261° |
| 2026-04-20 19:43 | 51.91320 | -0.52281 | 21646 ft | 351 kts | 262° |
| 2026-04-20 19:43 | 51.90804 | -0.56136 | 22271 ft | 351 kts | 262° |
| 2026-04-20 19:43 | 51.90285 | -0.60002 | 22900 ft | 351 kts | 262° |
| 2026-04-20 19:44 | 51.89766 | -0.63858 | 23518 ft | 351 kts | 263° |
| 2026-04-20 19:44 | 51.89243 | -0.67732 | 24088 ft | 352 kts | 263° |
| 2026-04-20 19:44 | 51.88719 | -0.71603 | 24557 ft | 354 kts | 263° |
| 2026-04-20 19:44 | 51.88189 | -0.75506 | 25010 ft | 356 kts | 263° |
| 2026-04-20 19:45 | 51.87657 | -0.79424 | 25462 ft | 357 kts | 263° |
| 2026-04-20 19:45 | 51.87120 | -0.83355 | 25919 ft | 359 kts | 263° |
| 2026-04-20 19:45 | 51.86579 | -0.87317 | 26370 ft | 361 kts | 263° |
| 2026-04-20 19:45 | 51.86034 | -0.91293 | 26803 ft | 363 kts | 262° |
| 2026-04-20 19:46 | 51.85146 | -0.95162 | 27231 ft | 376 kts | 246° |
| 2026-04-20 19:46 | 51.83473 | -0.98510 | 27712 ft | 393 kts | 230° |
| 2026-04-20 19:46 | 51.81140 | -1.00954 | 28271 ft | 410 kts | 213° |
| 2026-04-20 19:46 | 51.78336 | -1.02258 | 28671 ft | 430 kts | 197° |
| 2026-04-20 19:47 | 51.75363 | -1.02936 | 29082 ft | 431 kts | 198° |
| 2026-04-20 19:47 | 51.72396 | -1.03718 | 29414 ft | 434 kts | 198° |
| 2026-04-20 19:47 | 51.69400 | -1.04493 | 29795 ft | 436 kts | 198° |
| 2026-04-20 19:47 | 51.66398 | -1.05264 | 30150 ft | 439 kts | 198° |
| 2026-04-20 19:48 | 51.63372 | -1.06039 | 30474 ft | 442 kts | 198° |
| 2026-04-20 19:48 | 51.60387 | -1.07071 | 30749 ft | 435 kts | 206° |
| 2026-04-20 19:48 | 51.57456 | -1.08373 | 31016 ft | 439 kts | 204° |
| 2026-04-20 19:48 | 51.54491 | -1.09626 | 31296 ft | 442 kts | 204° |
| 2026-04-20 19:49 | 51.51508 | -1.10860 | 31639 ft | 443 kts | 203° |
| 2026-04-20 19:49 | 51.48527 | -1.12087 | 32028 ft | 441 kts | 204° |
| 2026-04-20 19:49 | 51.45567 | -1.13360 | 32404 ft | 440 kts | 204° |
| 2026-04-20 19:49 | 51.42612 | -1.14625 | 32785 ft | 440 kts | 203° |
| 2026-04-20 19:50 | 51.39655 | -1.15887 | 33153 ft | 440 kts | 203° |
| 2026-04-20 19:50 | 51.36690 | -1.17151 | 33297 ft | 441 kts | 203° |
| 2026-04-20 19:50 | 51.33738 | -1.18406 | 33281 ft | 438 kts | 203° |
| 2026-04-20 19:51 | 51.27843 | -1.20908 | 33257 ft | 439 kts | 203° |
| 2026-04-20 19:51 | 51.21931 | -1.23410 | 33262 ft | 439 kts | 203° |
| 2026-04-20 19:52 | 51.16025 | -1.25903 | 33248 ft | 439 kts | 203° |
| 2026-04-20 19:52 | 51.10115 | -1.28391 | 33261 ft | 439 kts | 203° |
| 2026-04-20 19:53 | 51.04199 | -1.30875 | 33263 ft | 439 kts | 203° |
| 2026-04-20 19:53 | 50.98292 | -1.33349 | 33269 ft | 439 kts | 203° |
| 2026-04-20 19:53 | 50.95440 | -1.34891 | 33244 ft | 425 kts | 216° |
| 2026-04-20 19:54 | 50.92982 | -1.37340 | 33283 ft | 417 kts | 221° |
| 2026-04-20 19:54 | 50.88064 | -1.42323 | 33240 ft | 419 kts | 221° |
| 2026-04-20 19:55 | 50.83206 | -1.47339 | 33253 ft | 421 kts | 221° |
| 2026-04-20 19:55 | 50.78306 | -1.52416 | 33254 ft | 421 kts | 221° |
| 2026-04-20 19:56 | 50.73379 | -1.57510 | 33240 ft | 421 kts | 221° |
| 2026-04-20 19:56 | 50.68513 | -1.62530 | 33238 ft | 421 kts | 221° |
| 2026-04-20 19:57 | 50.63614 | -1.67570 | 33223 ft | 421 kts | 221° |
| 2026-04-20 19:57 | 50.58700 | -1.72613 | 33243 ft | 422 kts | 220° |
| 2026-04-20 19:58 | 50.53776 | -1.77655 | 33238 ft | 423 kts | 220° |
| 2026-04-20 19:58 | 50.48771 | -1.82764 | 33240 ft | 435 kts | 220° |
| 2026-04-20 19:59 | 50.43617 | -1.88013 | 33221 ft | 447 kts | 219° |
| 2026-04-20 19:59 | 50.38359 | -1.93353 | 33216 ft | 452 kts | 219° |
| 2026-04-20 20:00 | 50.33080 | -1.98701 | 33234 ft | 452 kts | 219° |
| 2026-04-20 20:00 | 50.27806 | -2.04030 | 33236 ft | 452 kts | 219° |
| 2026-04-20 20:00 | 50.25000 | -2.06322 | 33213 ft | 461 kts | 205° |
| 2026-04-20 20:01 | 50.21837 | -2.07429 | 33238 ft | 472 kts | 192° |
| 2026-04-20 20:01 | 50.15267 | -2.08415 | 33213 ft | 474 kts | 191° |
| 2026-04-20 20:02 | 50.08702 | -2.09298 | 33223 ft | 473 kts | 190° |
| 2026-04-20 20:02 | 50.02142 | -2.10148 | 33222 ft | 473 kts | 190° |
| 2026-04-20 20:03 | 49.95738 | -2.11855 | 33237 ft | 461 kts | 204° |
| 2026-04-20 20:03 | 49.89612 | -2.14702 | 33219 ft | 462 kts | 202° |
| 2026-04-20 20:04 | 49.83404 | -2.17590 | 33215 ft | 462 kts | 202° |
| 2026-04-20 20:04 | 49.77288 | -2.20437 | 33216 ft | 462 kts | 202° |
| 2026-04-20 20:05 | 49.71123 | -2.23298 | 33194 ft | 462 kts | 202° |
| 2026-04-20 20:05 | 49.64968 | -2.26148 | 33197 ft | 461 kts | 202° |
| 2026-04-20 20:06 | 49.58820 | -2.28987 | 33209 ft | 461 kts | 202° |
| 2026-04-20 20:06 | 49.52680 | -2.31815 | 33202 ft | 461 kts | 202° |
| 2026-04-20 20:07 | 49.46535 | -2.34638 | 33186 ft | 460 kts | 202° |
| 2026-04-20 20:07 | 49.40403 | -2.37447 | 33184 ft | 459 kts | 202° |
| 2026-04-20 20:08 | 49.34272 | -2.40249 | 33188 ft | 460 kts | 202° |
| 2026-04-20 20:08 | 49.28142 | -2.43043 | 33186 ft | 460 kts | 202° |
| 2026-04-20 20:09 | 49.22017 | -2.45827 | 33185 ft | 459 kts | 202° |
| 2026-04-20 20:09 | 49.15889 | -2.48606 | 33184 ft | 459 kts | 202° |
| 2026-04-20 20:10 | 49.09759 | -2.51378 | 33182 ft | 459 kts | 202° |
| 2026-04-20 20:10 | 49.03630 | -2.54143 | 33158 ft | 459 kts | 202° |
| 2026-04-20 20:11 | 48.97504 | -2.56899 | 33177 ft | 459 kts | 202° |
| 2026-04-20 20:11 | 48.91381 | -2.59647 | 33175 ft | 459 kts | 202° |
| 2026-04-20 20:12 | 48.85253 | -2.62390 | 33161 ft | 459 kts | 202° |
| 2026-04-20 20:12 | 48.79169 | -2.65107 | 33166 ft | 458 kts | 201° |
| 2026-04-20 20:13 | 48.69991 | -2.69191 | 33156 ft | 458 kts | 201° |
| 2026-04-20 20:13 | 48.63866 | -2.71909 | 33156 ft | 458 kts | 201° |
| 2026-04-20 20:14 | 48.57751 | -2.74615 | 33149 ft | 458 kts | 202° |
| 2026-04-20 20:14 | 48.51636 | -2.77314 | 33153 ft | 458 kts | 202° |
| 2026-04-20 20:15 | 48.45518 | -2.80008 | 33150 ft | 458 kts | 202° |
| 2026-04-20 20:15 | 48.39403 | -2.82694 | 33125 ft | 458 kts | 202° |
| 2026-04-20 20:16 | 48.33298 | -2.85369 | 33137 ft | 457 kts | 202° |
| 2026-04-20 20:16 | 48.27199 | -2.88034 | 33125 ft | 457 kts | 202° |
| 2026-04-20 20:17 | 48.21096 | -2.90695 | 33131 ft | 457 kts | 202° |
| 2026-04-20 20:17 | 48.14996 | -2.93347 | 33128 ft | 456 kts | 203° |
| 2026-04-20 20:18 | 48.08906 | -2.95989 | 33120 ft | 455 kts | 203° |
| 2026-04-20 20:18 | 48.02820 | -2.98623 | 33112 ft | 455 kts | 203° |
| 2026-04-20 20:19 | 47.96737 | -3.01248 | 33086 ft | 455 kts | 203° |
| 2026-04-20 20:19 | 47.90674 | -3.03859 | 33099 ft | 453 kts | 203° |
| 2026-04-20 20:20 | 47.84613 | -3.06462 | 33111 ft | 453 kts | 203° |
| 2026-04-20 20:20 | 47.78555 | -3.09058 | 33099 ft | 453 kts | 203° |
| 2026-04-20 20:21 | 47.72502 | -3.11646 | 33090 ft | 451 kts | 203° |
| 2026-04-20 20:21 | 47.66474 | -3.14217 | 33096 ft | 451 kts | 203° |
| 2026-04-20 20:22 | 47.60446 | -3.16781 | 33098 ft | 451 kts | 203° |
| 2026-04-20 20:22 | 47.54414 | -3.19341 | 33079 ft | 451 kts | 203° |
| 2026-04-20 20:23 | 47.49414 | -3.21458 | 33087 ft | 450 kts | 203° |
| 2026-04-20 20:23 | 47.43396 | -3.24001 | 33087 ft | 450 kts | 203° |
| 2026-04-20 20:24 | 47.37376 | -3.26538 | 33081 ft | 450 kts | 203° |
| 2026-04-20 20:24 | 47.31359 | -3.29069 | 33065 ft | 450 kts | 202° |
| 2026-04-20 20:25 | 47.25344 | -3.31592 | 33066 ft | 449 kts | 202° |
| 2026-04-20 20:25 | 47.19344 | -3.34104 | 33078 ft | 448 kts | 202° |
| 2026-04-20 20:26 | 47.13346 | -3.36608 | 33072 ft | 448 kts | 202° |
| 2026-04-20 20:26 | 47.07340 | -3.39110 | 33068 ft | 449 kts | 202° |
| 2026-04-20 20:27 | 47.01333 | -3.41607 | 33067 ft | 449 kts | 202° |
| 2026-04-20 20:27 | 46.95322 | -3.44099 | 33065 ft | 449 kts | 202° |
| 2026-04-20 20:28 | 46.89311 | -3.46586 | 33048 ft | 449 kts | 201° |
| 2026-04-20 20:28 | 46.83286 | -3.49072 | 33061 ft | 450 kts | 201° |
| 2026-04-20 20:29 | 46.77258 | -3.51554 | 33062 ft | 450 kts | 201° |
| 2026-04-20 20:29 | 46.71230 | -3.54031 | 33057 ft | 450 kts | 201° |
| 2026-04-20 20:30 | 46.65201 | -3.56502 | 33051 ft | 450 kts | 201° |
| 2026-04-20 20:30 | 46.59177 | -3.58967 | 33046 ft | 450 kts | 201° |
| 2026-04-20 20:31 | 46.53142 | -3.61430 | 33046 ft | 450 kts | 201° |
| 2026-04-20 20:31 | 46.47118 | -3.63882 | 33042 ft | 449 kts | 201° |
| 2026-04-20 20:32 | 46.41102 | -3.66327 | 33040 ft | 449 kts | 201° |
| 2026-04-20 20:32 | 46.35089 | -3.68760 | 33036 ft | 449 kts | 200° |
| 2026-04-20 20:33 | 46.31975 | -3.69402 | 33014 ft | 459 kts | 184° |
| 2026-04-20 20:33 | 46.28775 | -3.68900 | 33042 ft | 465 kts | 176° |
| 2026-04-20 20:33 | 46.22373 | -3.67415 | 33033 ft | 466 kts | 175° |
| 2026-04-20 20:34 | 46.15977 | -3.65837 | 33028 ft | 466 kts | 175° |
| 2026-04-20 20:34 | 46.09619 | -3.64249 | 33020 ft | 466 kts | 175° |
| 2026-04-20 20:35 | 46.03181 | -3.62644 | 33021 ft | 466 kts | 175° |
| 2026-04-20 20:35 | 45.96829 | -3.61064 | 33021 ft | 466 kts | 175° |
| 2026-04-20 20:36 | 45.90433 | -3.59477 | 33002 ft | 466 kts | 174° |
| 2026-04-20 20:36 | 45.84037 | -3.57893 | 33015 ft | 466 kts | 175° |
| 2026-04-20 20:37 | 45.77642 | -3.56313 | 33013 ft | 467 kts | 174° |
| 2026-04-20 20:37 | 45.71244 | -3.54735 | 32992 ft | 466 kts | 174° |
| 2026-04-20 20:38 | 45.64851 | -3.53163 | 33005 ft | 466 kts | 174° |
| 2026-04-20 20:38 | 45.58464 | -3.51596 | 33006 ft | 466 kts | 174° |
| 2026-04-20 20:39 | 45.52079 | -3.50034 | 32993 ft | 466 kts | 174° |
| 2026-04-20 20:39 | 45.45688 | -3.48473 | 32994 ft | 466 kts | 174° |
| 2026-04-20 20:40 | 45.39298 | -3.46916 | 32998 ft | 466 kts | 174° |
| 2026-04-20 20:40 | 45.32903 | -3.45361 | 32982 ft | 466 kts | 174° |
| 2026-04-20 20:41 | 45.26518 | -3.43813 | 32993 ft | 465 kts | 174° |
| 2026-04-20 20:41 | 45.20133 | -3.42268 | 32995 ft | 465 kts | 174° |
| 2026-04-20 20:42 | 45.13752 | -3.40730 | 32974 ft | 465 kts | 174° |
| 2026-04-20 20:42 | 45.07369 | -3.39190 | 32984 ft | 465 kts | 174° |
| 2026-04-20 20:43 | 45.00992 | -3.37657 | 32983 ft | 465 kts | 174° |
| 2026-04-20 20:43 | 44.94621 | -3.36129 | 32983 ft | 465 kts | 174° |
| 2026-04-20 20:44 | 44.88249 | -3.34604 | 32981 ft | 464 kts | 174° |
| 2026-04-20 20:44 | 44.81890 | -3.33086 | 32978 ft | 464 kts | 174° |
| 2026-04-20 20:45 | 44.75527 | -3.31571 | 32983 ft | 464 kts | 174° |
| 2026-04-20 20:45 | 44.69163 | -3.30059 | 32977 ft | 464 kts | 174° |
| 2026-04-20 20:46 | 44.62799 | -3.28549 | 32980 ft | 464 kts | 174° |
| 2026-04-20 20:46 | 44.56431 | -3.27043 | 32970 ft | 464 kts | 174° |
| 2026-04-20 20:47 | 44.50079 | -3.25543 | 32979 ft | 463 kts | 174° |
| 2026-04-20 20:47 | 44.43773 | -3.24058 | 32980 ft | 463 kts | 174° |
| 2026-04-20 20:48 | 44.37427 | -3.22566 | 32963 ft | 463 kts | 174° |
| 2026-04-20 20:48 | 44.31077 | -3.21077 | 32977 ft | 463 kts | 174° |
| 2026-04-20 20:49 | 44.24723 | -3.19590 | 32974 ft | 463 kts | 174° |
| 2026-04-20 20:49 | 44.18373 | -3.18107 | 32974 ft | 463 kts | 174° |
| 2026-04-20 20:50 | 44.12025 | -3.16627 | 32974 ft | 463 kts | 174° |
| 2026-04-20 20:50 | 44.05741 | -3.14660 | 32954 ft | 469 kts | 159° |
| 2026-04-20 20:51 | 44.02928 | -3.12315 | 32985 ft | 475 kts | 145° |
| 2026-04-20 20:51 | 44.00322 | -3.09470 | 32960 ft | 478 kts | 145° |
| 2026-04-20 20:51 | 43.95132 | -3.03727 | 32971 ft | 476 kts | 144° |
| 2026-04-20 20:52 | 43.89976 | -2.97943 | 32974 ft | 477 kts | 144° |
| 2026-04-20 20:52 | 43.84818 | -2.92159 | 32977 ft | 477 kts | 144° |
| 2026-04-20 20:53 | 43.79667 | -2.86395 | 32969 ft | 477 kts | 144° |
| 2026-04-20 20:53 | 43.74510 | -2.80637 | 32969 ft | 476 kts | 144° |
| 2026-04-20 20:54 | 43.69358 | -2.74887 | 32973 ft | 476 kts | 144° |
| 2026-04-20 20:54 | 43.64201 | -2.69149 | 32967 ft | 476 kts | 144° |
| 2026-04-20 20:55 | 43.59070 | -2.63455 | 32959 ft | 478 kts | 144° |
| 2026-04-20 20:55 | 43.53882 | -2.57712 | 32965 ft | 478 kts | 144° |
| 2026-04-20 20:56 | 43.48691 | -2.51977 | 32969 ft | 478 kts | 144° |
| 2026-04-20 20:56 | 43.43504 | -2.46260 | 32971 ft | 478 kts | 144° |
| 2026-04-20 20:57 | 43.38307 | -2.40545 | 32959 ft | 478 kts | 144° |
| 2026-04-20 20:57 | 43.33122 | -2.34856 | 32966 ft | 477 kts | 144° |
| 2026-04-20 20:58 | 43.27929 | -2.29172 | 32972 ft | 477 kts | 144° |
| 2026-04-20 20:58 | 43.22739 | -2.23502 | 32972 ft | 477 kts | 144° |
| 2026-04-20 20:59 | 43.17541 | -2.17837 | 32968 ft | 477 kts | 144° |
| 2026-04-20 20:59 | 43.12338 | -2.12177 | 32941 ft | 477 kts | 144° |
| 2026-04-20 21:00 | 43.07131 | -2.06532 | 32976 ft | 478 kts | 144° |
| 2026-04-20 21:00 | 43.01924 | -2.00898 | 32963 ft | 477 kts | 145° |
| 2026-04-20 21:01 | 42.96704 | -1.95261 | 32952 ft | 479 kts | 145° |
| 2026-04-20 21:01 | 42.91472 | -1.89625 | 32954 ft | 479 kts | 145° |
| 2026-04-20 21:02 | 42.86236 | -1.83990 | 32949 ft | 480 kts | 145° |
| 2026-04-20 21:02 | 42.80999 | -1.78366 | 32937 ft | 479 kts | 144° |
| 2026-04-20 21:03 | 42.78261 | -1.75817 | 32923 ft | 474 kts | 156° |
| 2026-04-20 21:03 | 42.75212 | -1.74275 | 32941 ft | 465 kts | 172° |
| 2026-04-20 21:03 | 42.72028 | -1.73843 | 32944 ft | 458 kts | 185° |
| 2026-04-20 21:03 | 42.68890 | -1.74327 | 32922 ft | 451 kts | 198° |
| 2026-04-20 21:04 | 42.63128 | -1.77349 | 32927 ft | 447 kts | 207° |
| 2026-04-20 21:04 | 42.57507 | -1.80926 | 32929 ft | 445 kts | 209° |
| 2026-04-20 21:05 | 42.51949 | -1.84606 | 32937 ft | 445 kts | 210° |
| 2026-04-20 21:05 | 42.46403 | -1.88310 | 32932 ft | 444 kts | 210° |
| 2026-04-20 21:06 | 42.40854 | -1.92013 | 32933 ft | 445 kts | 210° |
| 2026-04-20 21:06 | 42.35301 | -1.95712 | 32921 ft | 444 kts | 210° |
| 2026-04-20 21:07 | 42.29762 | -1.99402 | 32934 ft | 444 kts | 210° |
| 2026-04-20 21:07 | 42.24212 | -2.03082 | 32937 ft | 444 kts | 209° |
| 2026-04-20 21:08 | 42.18662 | -2.06752 | 32939 ft | 444 kts | 209° |
| 2026-04-20 21:08 | 42.13116 | -2.10416 | 32943 ft | 444 kts | 209° |
| 2026-04-20 21:09 | 42.07571 | -2.14073 | 32966 ft | 444 kts | 209° |
| 2026-04-20 21:09 | 42.02031 | -2.17719 | 32966 ft | 444 kts | 209° |
| 2026-04-20 21:10 | 41.96481 | -2.21365 | 32948 ft | 444 kts | 209° |
| 2026-04-20 21:10 | 41.91879 | -2.24382 | 32965 ft | 442 kts | 209° |
| 2026-04-20 21:11 | 41.86348 | -2.28003 | 32966 ft | 442 kts | 209° |
| 2026-04-20 21:11 | 41.80823 | -2.31612 | 32974 ft | 441 kts | 209° |
| 2026-04-20 21:12 | 41.75313 | -2.35204 | 32973 ft | 441 kts | 209° |
| 2026-04-20 21:12 | 41.69790 | -2.38799 | 32972 ft | 441 kts | 208° |
| 2026-04-20 21:13 | 41.64267 | -2.42386 | 32964 ft | 441 kts | 208° |
| 2026-04-20 21:13 | 41.58744 | -2.45967 | 32971 ft | 441 kts | 208° |
| 2026-04-20 21:14 | 41.53223 | -2.49540 | 32943 ft | 441 kts | 208° |
| 2026-04-20 21:14 | 41.47676 | -2.53121 | 32967 ft | 444 kts | 208° |
| 2026-04-20 21:15 | 41.42116 | -2.56704 | 32973 ft | 444 kts | 208° |
| 2026-04-20 21:15 | 41.36560 | -2.60278 | 32974 ft | 444 kts | 208° |
| 2026-04-20 21:16 | 41.30646 | -2.62567 | 32951 ft | 452 kts | 184° |
| 2026-04-20 21:16 | 41.24307 | -2.62199 | 32961 ft | 457 kts | 180° |
| 2026-04-20 21:17 | 41.17961 | -2.61684 | 32966 ft | 457 kts | 179° |
| 2026-04-20 21:17 | 41.11616 | -2.61124 | 32961 ft | 457 kts | 179° |
| 2026-04-20 21:18 | 41.05315 | -2.60564 | 32967 ft | 457 kts | 179° |
| 2026-04-20 21:18 | 40.98934 | -2.59996 | 32968 ft | 457 kts | 179° |
| 2026-04-20 21:19 | 40.92636 | -2.59427 | 32963 ft | 457 kts | 179° |
| 2026-04-20 21:20 | 40.83087 | -2.58565 | 32968 ft | 456 kts | 179° |
| 2026-04-20 21:20 | 40.76804 | -2.58000 | 32965 ft | 456 kts | 179° |
| 2026-04-20 21:21 | 40.70480 | -2.57432 | 32963 ft | 456 kts | 179° |
| 2026-04-20 21:21 | 40.64155 | -2.56865 | 32967 ft | 456 kts | 179° |
| 2026-04-20 21:22 | 40.57822 | -2.56299 | 32963 ft | 456 kts | 179° |
| 2026-04-20 21:22 | 40.51497 | -2.55734 | 32960 ft | 456 kts | 179° |
| 2026-04-20 21:23 | 40.45170 | -2.55170 | 32966 ft | 456 kts | 179° |
| 2026-04-20 21:23 | 40.38856 | -2.54697 | 32950 ft | 452 kts | 186° |
| 2026-04-20 21:23 | 40.35792 | -2.55425 | 32962 ft | 445 kts | 201° |
| 2026-04-20 21:24 | 40.32873 | -2.56782 | 32960 ft | 446 kts | 202° |
| 2026-04-20 21:24 | 40.27053 | -2.59591 | 32954 ft | 446 kts | 203° |
| 2026-04-20 21:25 | 40.21252 | -2.62478 | 32949 ft | 446 kts | 203° |
| 2026-04-20 21:25 | 40.15471 | -2.65373 | 32959 ft | 445 kts | 203° |
| 2026-04-20 21:26 | 40.09687 | -2.68265 | 32965 ft | 445 kts | 203° |
| 2026-04-20 21:26 | 40.03890 | -2.71159 | 32963 ft | 446 kts | 203° |
| 2026-04-20 21:27 | 39.98094 | -2.74047 | 32961 ft | 446 kts | 203° |
| 2026-04-20 21:27 | 39.92292 | -2.76932 | 32958 ft | 446 kts | 203° |
| 2026-04-20 21:28 | 39.86494 | -2.79811 | 32959 ft | 446 kts | 203° |
| 2026-04-20 21:28 | 39.80693 | -2.82685 | 32957 ft | 446 kts | 203° |
| 2026-04-20 21:29 | 39.74886 | -2.85557 | 32944 ft | 446 kts | 202° |
| 2026-04-20 21:29 | 39.69085 | -2.88422 | 32959 ft | 447 kts | 202° |
| 2026-04-20 21:30 | 39.63272 | -2.91287 | 32948 ft | 446 kts | 202° |
| 2026-04-20 21:30 | 39.57468 | -2.94147 | 32954 ft | 446 kts | 202° |
| 2026-04-20 21:31 | 39.51664 | -2.97006 | 32941 ft | 446 kts | 202° |
| 2026-04-20 21:31 | 39.45891 | -2.99844 | 32946 ft | 447 kts | 202° |
| 2026-04-20 21:32 | 39.40079 | -3.02695 | 32945 ft | 447 kts | 202° |
| 2026-04-20 21:32 | 39.34261 | -3.05532 | 32942 ft | 447 kts | 202° |
| 2026-04-20 21:33 | 39.28428 | -3.08371 | 32942 ft | 449 kts | 202° |
| 2026-04-20 21:33 | 39.22584 | -3.11211 | 32949 ft | 449 kts | 202° |
| 2026-04-20 21:34 | 39.16738 | -3.14047 | 32953 ft | 449 kts | 202° |
| 2026-04-20 21:34 | 39.10890 | -3.16879 | 32945 ft | 449 kts | 202° |
| 2026-04-20 21:35 | 39.05042 | -3.19706 | 32959 ft | 449 kts | 202° |
| 2026-04-20 21:35 | 38.99188 | -3.22530 | 32946 ft | 449 kts | 202° |
| 2026-04-20 21:36 | 38.93330 | -3.25350 | 32955 ft | 449 kts | 202° |
| 2026-04-20 21:36 | 38.87472 | -3.28166 | 32954 ft | 449 kts | 202° |
| 2026-04-20 21:37 | 38.81615 | -3.30976 | 32947 ft | 450 kts | 202° |
| 2026-04-20 21:37 | 38.75754 | -3.33783 | 32959 ft | 450 kts | 202° |
| 2026-04-20 21:38 | 38.69928 | -3.36568 | 32958 ft | 450 kts | 202° |
| 2026-04-20 21:38 | 38.64064 | -3.39367 | 32956 ft | 450 kts | 202° |
| 2026-04-20 21:39 | 38.58202 | -3.42160 | 32953 ft | 450 kts | 202° |
| 2026-04-20 21:39 | 38.52335 | -3.44950 | 32959 ft | 450 kts | 202° |
| 2026-04-20 21:40 | 38.46472 | -3.47733 | 32966 ft | 450 kts | 202° |
| 2026-04-20 21:40 | 38.40607 | -3.50513 | 32949 ft | 450 kts | 202° |
| 2026-04-20 21:41 | 38.34742 | -3.53287 | 32959 ft | 450 kts | 202° |
| 2026-04-20 21:41 | 38.28875 | -3.56059 | 32902 ft | 449 kts | 202° |
| 2026-04-20 21:41 | 38.25955 | -3.57436 | 32683 ft | 447 kts | 202° |
| 2026-04-20 21:42 | 38.23036 | -3.58812 | 32426 ft | 448 kts | 202° |
| 2026-04-20 21:42 | 38.20112 | -3.60189 | 32176 ft | 448 kts | 202° |
| 2026-04-20 21:42 | 38.17181 | -3.61557 | 31927 ft | 450 kts | 200° |
| 2026-04-20 21:42 | 38.14110 | -3.62324 | 31645 ft | 453 kts | 185° |
| 2026-04-20 21:43 | 38.10983 | -3.62408 | 31411 ft | 457 kts | 184° |
| 2026-04-20 21:43 | 38.07804 | -3.62491 | 31159 ft | 458 kts | 183° |
| 2026-04-20 21:43 | 38.04612 | -3.62547 | 30922 ft | 459 kts | 183° |
| 2026-04-20 21:43 | 38.01412 | -3.62584 | 30687 ft | 460 kts | 182° |
| 2026-04-20 21:44 | 37.98206 | -3.62614 | 30445 ft | 461 kts | 182° |
| 2026-04-20 21:44 | 37.94992 | -3.62642 | 30208 ft | 462 kts | 182° |
| 2026-04-20 21:44 | 37.91774 | -3.62669 | 29968 ft | 463 kts | 183° |
| 2026-04-20 21:44 | 37.88544 | -3.62695 | 29671 ft | 464 kts | 182° |
| 2026-04-20 21:45 | 37.85307 | -3.62722 | 29391 ft | 465 kts | 182° |
| 2026-04-20 21:45 | 37.82074 | -3.62749 | 29127 ft | 465 kts | 182° |
| 2026-04-20 21:45 | 37.78834 | -3.62776 | 28863 ft | 466 kts | 182° |
| 2026-04-20 21:45 | 37.75587 | -3.62803 | 28589 ft | 467 kts | 182° |
| 2026-04-20 21:46 | 37.72337 | -3.62830 | 28333 ft | 468 kts | 182° |
| 2026-04-20 21:46 | 37.69077 | -3.62857 | 28070 ft | 468 kts | 182° |
| 2026-04-20 21:46 | 37.65815 | -3.62883 | 27800 ft | 469 kts | 182° |
| 2026-04-20 21:46 | 37.62553 | -3.62908 | 27551 ft | 469 kts | 182° |
| 2026-04-20 21:47 | 37.59285 | -3.62934 | 27297 ft | 470 kts | 182° |
| 2026-04-20 21:47 | 37.56016 | -3.62958 | 27046 ft | 470 kts | 182° |
| 2026-04-20 21:47 | 37.52742 | -3.62983 | 26858 ft | 471 kts | 182° |
| 2026-04-20 21:47 | 37.49477 | -3.63008 | 26677 ft | 467 kts | 182° |
| 2026-04-20 21:48 | 37.46237 | -3.62929 | 26498 ft | 466 kts | 175° |
| 2026-04-20 21:48 | 37.43088 | -3.61962 | 26320 ft | 469 kts | 160° |
| 2026-04-20 21:48 | 37.40234 | -3.59988 | 26128 ft | 471 kts | 146° |
| 2026-04-20 21:48 | 37.37778 | -3.57249 | 25963 ft | 474 kts | 133° |
| 2026-04-20 21:49 | 37.35868 | -3.53871 | 25795 ft | 476 kts | 122° |
| 2026-04-20 21:49 | 37.34242 | -3.50241 | 25637 ft | 476 kts | 120° |
| 2026-04-20 21:49 | 37.32689 | -3.46578 | 25460 ft | 475 kts | 119° |
| 2026-04-20 21:49 | 37.31169 | -3.42894 | 25290 ft | 474 kts | 118° |
| 2026-04-20 21:50 | 37.29672 | -3.39215 | 25101 ft | 473 kts | 118° |
| 2026-04-20 21:50 | 37.28186 | -3.35534 | 24954 ft | 472 kts | 118° |
| 2026-04-20 21:50 | 37.26709 | -3.31870 | 24785 ft | 470 kts | 118° |
| 2026-04-20 21:50 | 37.25242 | -3.28200 | 24607 ft | 469 kts | 118° |
| 2026-04-20 21:51 | 37.23805 | -3.24531 | 24446 ft | 468 kts | 118° |
| 2026-04-20 21:51 | 37.22368 | -3.20876 | 24281 ft | 467 kts | 118° |
| 2026-04-20 21:51 | 37.20933 | -3.17230 | 23917 ft | 464 kts | 118° |
| 2026-04-20 21:51 | 37.19508 | -3.13618 | 23508 ft | 461 kts | 118° |
| 2026-04-20 21:52 | 37.18091 | -3.10029 | 23031 ft | 457 kts | 118° |
| 2026-04-20 21:52 | 37.16683 | -3.06466 | 22562 ft | 455 kts | 118° |
| 2026-04-20 21:52 | 37.15286 | -3.02934 | 21894 ft | 450 kts | 118° |
| 2026-04-20 21:52 | 37.13898 | -2.99433 | 21243 ft | 446 kts | 118° |
| 2026-04-20 21:53 | 37.12526 | -2.95973 | 20591 ft | 436 kts | 117° |
| 2026-04-20 21:53 | 37.11201 | -2.92637 | 19987 ft | 420 kts | 118° |
| 2026-04-20 21:53 | 37.09919 | -2.89410 | 19359 ft | 407 kts | 117° |
| 2026-04-20 21:53 | 37.08692 | -2.86325 | 18775 ft | 396 kts | 118° |
| 2026-04-20 21:54 | 37.07461 | -2.83244 | 18168 ft | 385 kts | 119° |
| 2026-04-20 21:54 | 37.05898 | -2.80605 | 17483 ft | 373 kts | 140° |
| 2026-04-20 21:54 | 37.03733 | -2.78961 | 16833 ft | 360 kts | 163° |
| 2026-04-20 21:54 | 37.01307 | -2.78445 | 16135 ft | 350 kts | 183° |
| 2026-04-20 21:55 | 36.98950 | -2.78798 | 15456 ft | 344 kts | 190° |
| 2026-04-20 21:55 | 36.96591 | -2.79249 | 14647 ft | 344 kts | 191° |
| 2026-04-20 21:55 | 36.94204 | -2.79358 | 13801 ft | 348 kts | 172° |
| 2026-04-20 21:55 | 36.91877 | -2.78504 | 12919 ft | 349 kts | 164° |
| 2026-04-20 21:56 | 36.89560 | -2.77591 | 12022 ft | 349 kts | 165° |
| 2026-04-20 21:56 | 36.87246 | -2.76697 | 11175 ft | 348 kts | 165° |
| 2026-04-20 21:56 | 36.84937 | -2.75811 | 10343 ft | 347 kts | 164° |
| 2026-04-20 21:56 | 36.82635 | -2.74932 | 9486 ft | 345 kts | 164° |
| 2026-04-20 21:57 | 36.80362 | -2.73995 | 8603 ft | 344 kts | 156° |
| 2026-04-20 21:57 | 36.78453 | -2.72247 | 7729 ft | 344 kts | 130° |
| 2026-04-20 21:57 | 36.77326 | -2.69651 | 6891 ft | 342 kts | 105° |
| 2026-04-20 21:57 | 36.77145 | -2.66731 | 6059 ft | 339 kts | 82° |
| 2026-04-20 21:58 | 36.77690 | -2.63887 | 5214 ft | 336 kts | 71° |
| 2026-04-20 21:58 | 36.78431 | -2.61132 | 4484 ft | 331 kts | 71° |
| 2026-04-20 21:58 | 36.78939 | -2.58442 | 4230 ft | 309 kts | 89° |
| 2026-04-20 21:58 | 36.78503 | -2.55924 | 3967 ft | 291 kts | 118° |
| 2026-04-20 21:59 | 36.77210 | -2.54112 | 3717 ft | 274 kts | 149° |
| 2026-04-20 21:59 | 36.75454 | -2.53477 | 3455 ft | 259 kts | 182° |
| 2026-04-20 21:59 | 36.74302 | -2.53809 | 3319 ft | 248 kts | 206° |
| 2026-04-20 21:59 | 36.73137 | -2.55235 | 3104 ft | 232 kts | 247° |
| 2026-04-20 22:00 | 36.72909 | -2.57109 | 3088 ft | 209 kts | 267° |
| 2026-04-20 22:00 | 36.72783 | -2.58844 | 3047 ft | 196 kts | 267° |
| 2026-04-20 22:00 | 36.72973 | -2.60509 | 2989 ft | 195 kts | 297° |
| 2026-04-20 22:00 | 36.73910 | -2.61634 | 2990 ft | 184 kts | 338° |
| 2026-04-20 22:01 | 36.75132 | -2.61718 | 3008 ft | 177 kts | 19° |
| 2026-04-20 22:01 | 36.76201 | -2.60976 | 3089 ft | 177 kts | 34° |
| 2026-04-20 22:01 | 36.77149 | -2.59983 | 3156 ft | 179 kts | 43° |
| 2026-04-20 22:01 | 36.78007 | -2.58852 | 3103 ft | 180 kts | 53° |
| 2026-04-20 22:02 | 36.78650 | -2.57523 | 2995 ft | 179 kts | 65° |
| 2026-04-20 22:02 | 36.79159 | -2.56110 | 2837 ft | 178 kts | 65° |
| 2026-04-20 22:02 | 36.79664 | -2.54718 | 2617 ft | 179 kts | 65° |
| 2026-04-20 22:02 | 36.80184 | -2.53304 | 2333 ft | 179 kts | 65° |
| 2026-04-20 22:03 | 36.80685 | -2.51948 | 2123 ft | 165 kts | 65° |
| 2026-04-20 22:03 | 36.81052 | -2.50604 | 1933 ft | 163 kts | 73° |
| 2026-04-20 22:03 | 36.81373 | -2.49248 | 1789 ft | 163 kts | 73° |
| 2026-04-20 22:03 | 36.81691 | -2.47898 | 1672 ft | 161 kts | 74° |
| 2026-04-20 22:04 | 36.81998 | -2.46594 | 1527 ft | 155 kts | 72° |
| 2026-04-20 22:04 | 36.82317 | -2.45337 | 1184 ft | 150 kts | 71° |
| 2026-04-20 22:04 | 36.82631 | -2.44151 | 919 ft | 142 kts | 72° |
| 2026-04-20 22:04 | 36.82931 | -2.42933 | 693 ft | 151 kts | 72° |
| 2026-04-20 22:05 | 36.83243 | -2.41688 | 537 ft | 151 kts | 72° |
| 2026-04-20 22:05 | 36.83551 | -2.40446 | 370 ft | 150 kts | 72° |
| 2026-04-20 22:05 | 36.83850 | -2.39216 | 205 ft | 145 kts | 72° |
| 2026-04-20 22:05 | 36.84143 | -2.38053 | 62 ft | 133 kts | 74° |
| 2026-04-20 22:06 | 36.84378 | -2.37076 | 62 ft | 103 kts | 73° |
| 2026-04-20 22:06 | 36.84553 | -2.36370 | 58 ft | 68 kts | 72° |
| 2026-04-20 22:06 | 36.84656 | -2.35955 | 59 ft | 34 kts | 73° |
| 2026-04-20 22:06 | 36.84717 | -2.35697 | 61 ft | 25 kts | 73° |
| 2026-04-20 22:07 | 36.84771 | -2.35481 | 57 ft | 23 kts | 72° |
| 2026-04-20 22:07 | 36.84832 | -2.35338 | 61 ft | 16 kts | 29° |
| 2026-04-20 22:07 | 36.84934 | -2.35363 | 64 ft | 16 kts | 314° |
| 2026-04-20 22:07 | 36.84944 | -2.35496 | 64 ft | 17 kts | 255° |
| 2026-04-20 22:08 | 36.84906 | -2.35649 | 65 ft | 20 kts | 252° |
| 2026-04-20 22:08 | 36.84861 | -2.35824 | 65 ft | 22 kts | 252° |
| 2026-04-20 22:08 | 36.84812 | -2.36018 | 60 ft | 25 kts | 253° |
| 2026-04-20 22:08 | 36.84759 | -2.36232 | 67 ft | 27 kts | 253° |
| 2026-04-20 22:09 | 36.84701 | -2.36464 | 68 ft | 29 kts | 253° |
| 2026-04-20 22:09 | 36.84641 | -2.36714 | 68 ft | 31 kts | 253° |
| 2026-04-20 22:09 | 36.84586 | -2.36942 | 67 ft | 26 kts | 253° |
| 2026-04-20 22:09 | 36.84536 | -2.37148 | 64 ft | 25 kts | 252° |
| 2026-04-20 22:10 | 36.84491 | -2.37329 | 63 ft | 12 kts | 265° |
| 2026-04-20 22:10 | 36.84538 | -2.37381 | 68 ft | 9 kts | 11° |
| 2026-04-20 22:10 | 36.84569 | -2.37319 | 63 ft | 9 kts | 75° |
| 2026-04-20 22:10 | 36.84588 | -2.37266 | 67 ft | 1 kts | 29° |
| 2026-04-20 22:11 | 36.84589 | -2.37266 | 67 ft | 0 kts | 24° |
| 2026-04-20 22:11 | 36.84590 | -2.37265 | 67 ft | 1 kts | 23° |
| 2026-04-20 22:11 | 36.84597 | -2.37264 | 67 ft | 1 kts | 359° |
| 2026-04-20 22:11 | 36.84613 | -2.37268 | 68 ft | 4 kts | 343° |
| 2026-04-20 22:12 | 36.84635 | -2.37276 | 64 ft | 2 kts | 343° |
| 2026-04-20 22:12 | 36.84638 | -2.37277 | 72 ft | 0 kts | 343° |
| 2026-04-20 22:12 | 36.84640 | -2.37278 | 64 ft | 1 kts | 343° |
| 2026-04-20 22:12 | 36.84651 | -2.37282 | 69 ft | 2 kts | 343° |
| 2026-04-20 22:13 | 36.84667 | -2.37276 | 73 ft | 3 kts | 46° |
| 2026-04-20 22:13 | 36.84658 | -2.37256 | 69 ft | 5 kts | 132° |
| 2026-04-20 22:13 | 36.84653 | -2.37246 | 67 ft | 0 kts | 115° |